sensor_id;sensor_type;location;lat;lon;timestamp;temperature;humidity
62476;DHT22;50739;45.670;11.936;2024-01-30T00:03:01;1.85;90.71
62476;DHT22;50739;45.670;11.936;2024-01-30T00:08:04;1.95;90.43
62476;DHT22;50739;45.670;11.936;2024-01-30T00:13:08;1.95;90.80
62476;DHT22;50739;45.670;11.936;2024-01-30T00:18:10;1.81;90.25
62476;DHT22;50739;45.670;11.936;2024-01-30T00:23:13;1.64;91.31
62476;DHT22;50739;45.670;11.936;2024-01-30T00:28:16;1.71;91.37
62476;DHT22;50739;45.670;11.936;2024-01-30T00:33:43;1.71;91.51
62476;DHT22;50739;45.670;11.936;2024-01-30T00:38:46;1.85;90.78
62476;DHT22;50739;45.670;11.936;2024-01-30T00:43:50;1.75;91.47
62476;DHT22;50739;45.670;11.936;2024-01-30T00:48:52;1.70;91.74
62476;DHT22;50739;45.670;11.936;2024-01-30T00:53:54;1.74;92.09
62476;DHT22;50739;45.670;11.936;2024-01-30T00:58:58;1.88;91.01
62476;DHT22;50739;45.670;11.936;2024-01-30T01:04:01;1.67;90.41
62476;DHT22;50739;45.670;11.936;2024-01-30T01:09:03;1.56;90.76
62476;DHT22;50739;45.670;11.936;2024-01-30T01:14:07;1.45;91.69
62476;DHT22;50739;45.670;11.936;2024-01-30T01:19:09;1.74;90.89
62476;DHT22;50739;45.670;11.936;2024-01-30T01:24:12;1.84;90.57
62476;DHT22;50739;45.670;11.936;2024-01-30T01:29:16;1.77;90.44
62476;DHT22;50739;45.670;11.936;2024-01-30T01:34:18;1.74;90.93
62476;DHT22;50739;45.670;11.936;2024-01-30T01:39:21;1.74;90.44
62476;DHT22;50739;45.670;11.936;2024-01-30T01:44:26;1.66;91.03
62476;DHT22;50739;45.670;11.936;2024-01-30T01:49:29;1.64;90.60
62476;DHT22;50739;45.670;11.936;2024-01-30T01:54:32;1.90;90.26
62476;DHT22;50739;45.670;11.936;2024-01-30T01:59:36;1.75;89.33
62476;DHT22;50739;45.670;11.936;2024-01-30T02:04:38;1.59;89.55
62476;DHT22;50739;45.670;11.936;2024-01-30T02:09:41;1.64;89.91
62476;DHT22;50739;45.670;11.936;2024-01-30T02:14:46;1.60;89.63
62476;DHT22;50739;45.670;11.936;2024-01-30T02:19:49;1.59;90.56
62476;DHT22;50739;45.670;11.936;2024-01-30T02:24:53;1.62;90.07
62476;DHT22;50739;45.670;11.936;2024-01-30T02:29:55;1.35;89.97
62476;DHT22;50739;45.670;11.936;2024-01-30T02:34:58;1.43;90.22
62476;DHT22;50739;45.670;11.936;2024-01-30T02:40:02;1.52;90.20
62476;DHT22;50739;45.670;11.936;2024-01-30T02:45:05;1.42;90.12
62476;DHT22;50739;45.670;11.936;2024-01-30T02:50:08;1.36;90.06
62476;DHT22;50739;45.670;11.936;2024-01-30T02:55:12;1.34;89.99
62476;DHT22;50739;45.670;11.936;2024-01-30T03:00:19;1.34;90.17
62476;DHT22;50739;45.670;11.936;2024-01-30T03:05:21;1.19;90.49
62476;DHT22;50739;45.670;11.936;2024-01-30T03:10:25;1.25;90.15
62476;DHT22;50739;45.670;11.936;2024-01-30T03:15:28;1.29;89.66
62476;DHT22;50739;45.670;11.936;2024-01-30T03:20:30;1.28;89.77
62476;DHT22;50739;45.670;11.936;2024-01-30T03:25:34;1.29;89.46
62476;DHT22;50739;45.670;11.936;2024-01-30T03:30:36;1.16;90.31
62476;DHT22;50739;45.670;11.936;2024-01-30T03:35:39;1.15;89.75
62476;DHT22;50739;45.670;11.936;2024-01-30T03:40:43;1.07;90.11
62476;DHT22;50739;45.670;11.936;2024-01-30T03:45:45;1.15;90.50
62476;DHT22;50739;45.670;11.936;2024-01-30T03:50:47;1.08;90.19
62476;DHT22;50739;45.670;11.936;2024-01-30T03:55:51;1.24;89.66
62476;DHT22;50739;45.670;11.936;2024-01-30T04:00:54;1.04;89.48
62476;DHT22;50739;45.670;11.936;2024-01-30T04:05:56;0.78;89.85
62476;DHT22;50739;45.670;11.936;2024-01-30T04:11:03;0.70;89.57
62476;DHT22;50739;45.670;11.936;2024-01-30T04:16:06;0.80;89.66
62476;DHT22;50739;45.670;11.936;2024-01-30T04:21:09;0.83;89.99
62476;DHT22;50739;45.670;11.936;2024-01-30T04:26:13;0.73;89.65
62476;DHT22;50739;45.670;11.936;2024-01-30T04:31:15;0.81;90.64
62476;DHT22;50739;45.670;11.936;2024-01-30T04:36:18;0.83;89.97
62476;DHT22;50739;45.670;11.936;2024-01-30T04:41:21;0.76;89.91
62476;DHT22;50739;45.670;11.936;2024-01-30T04:46:24;0.71;90.09
62476;DHT22;50739;45.670;11.936;2024-01-30T04:51:26;0.74;89.99
62476;DHT22;50739;45.670;11.936;2024-01-30T04:56:30;0.43;90.37
62476;DHT22;50739;45.670;11.936;2024-01-30T05:01:33;0.56;90.43
62476;DHT22;50739;45.670;11.936;2024-01-30T05:06:35;0.59;89.97
62476;DHT22;50739;45.670;11.936;2024-01-30T05:11:39;0.60;90.52
62476;DHT22;50739;45.670;11.936;2024-01-30T05:16:42;0.48;90.57
62476;DHT22;50739;45.670;11.936;2024-01-30T05:21:47;0.42;90.59
62476;DHT22;50739;45.670;11.936;2024-01-30T05:26:51;0.45;90.14
62476;DHT22;50739;45.670;11.936;2024-01-30T05:31:54;0.52;89.77
62476;DHT22;50739;45.670;11.936;2024-01-30T05:36:56;0.56;89.80
62476;DHT22;50739;45.670;11.936;2024-01-30T05:42:00;0.39;89.95
62476;DHT22;50739;45.670;11.936;2024-01-30T05:47:03;0.40;90.15
62476;DHT22;50739;45.670;11.936;2024-01-30T05:52:05;0.45;89.57
62476;DHT22;50739;45.670;11.936;2024-01-30T05:57:09;0.36;89.97
62476;DHT22;50739;45.670;11.936;2024-01-30T06:02:12;0.32;89.46
62476;DHT22;50739;45.670;11.936;2024-01-30T06:07:14;0.23;89.61
62476;DHT22;50739;45.670;11.936;2024-01-30T06:12:19;0.15;90.43
62476;DHT22;50739;45.670;11.936;2024-01-30T06:17:22;0.23;90.17
62476;DHT22;50739;45.670;11.936;2024-01-30T06:22:24;0.29;89.63
62476;DHT22;50739;45.670;11.936;2024-01-30T06:27:28;0.23;89.47
62476;DHT22;50739;45.670;11.936;2024-01-30T06:32:30;0.38;89.31
62476;DHT22;50739;45.670;11.936;2024-01-30T06:37:35;0.26;89.10
62476;DHT22;50739;45.670;11.936;2024-01-30T06:42:39;0.18;89.70
62476;DHT22;50739;45.670;11.936;2024-01-30T06:47:41;0.12;89.28
62476;DHT22;50739;45.670;11.936;2024-01-30T06:52:43;0.23;88.96
62476;DHT22;50739;45.670;11.936;2024-01-30T06:57:47;0.38;89.40
62476;DHT22;50739;45.670;11.936;2024-01-30T07:02:49;0.35;89.34
62476;DHT22;50739;45.670;11.936;2024-01-30T07:07:52;0.53;89.73
62476;DHT22;50739;45.670;11.936;2024-01-30T07:12:56;0.57;89.64
62476;DHT22;50739;45.670;11.936;2024-01-30T07:17:58;0.69;89.95
62476;DHT22;50739;45.670;11.936;2024-01-30T07:23:00;0.63;90.29
62476;DHT22;50739;45.670;11.936;2024-01-30T07:28:05;0.84;90.08
62476;DHT22;50739;45.670;11.936;2024-01-30T07:33:07;0.91;89.70
62476;DHT22;50739;45.670;11.936;2024-01-30T07:38:10;1.12;89.64
62476;DHT22;50739;45.670;11.936;2024-01-30T07:43:13;1.18;89.56
62476;DHT22;50739;45.670;11.936;2024-01-30T07:48:16;1.09;89.65
62476;DHT22;50739;45.670;11.936;2024-01-30T07:53:18;1.07;89.83
62476;DHT22;50739;45.670;11.936;2024-01-30T07:58:22;1.25;90.18
62476;DHT22;50739;45.670;11.936;2024-01-30T08:03:25;1.34;90.01
62476;DHT22;50739;45.670;11.936;2024-01-30T08:08:27;1.34;89.95
62476;DHT22;50739;45.670;11.936;2024-01-30T08:13:31;1.60;89.47
62476;DHT22;50739;45.670;11.936;2024-01-30T08:18:33;1.80;88.76
62476;DHT22;50739;45.670;11.936;2024-01-30T08:23:38;1.90;88.78
62476;DHT22;50739;45.670;11.936;2024-01-30T08:28:41;1.88;89.05
62476;DHT22;50739;45.670;11.936;2024-01-30T08:33:44;2.05;89.10
62476;DHT22;50739;45.670;11.936;2024-01-30T08:38:46;2.21;88.31
62476;DHT22;50739;45.670;11.936;2024-01-30T08:43:50;2.26;88.60
62476;DHT22;50739;45.670;11.936;2024-01-30T08:48:52;2.40;88.49
62476;DHT22;50739;45.670;11.936;2024-01-30T08:53:55;2.42;89.11
62476;DHT22;50739;45.670;11.936;2024-01-30T08:58:59;2.68;87.43
62476;DHT22;50739;45.670;11.936;2024-01-30T09:04:01;3.04;87.40
62476;DHT22;50739;45.670;11.936;2024-01-30T09:09:04;3.08;87.64
62476;DHT22;50739;45.670;11.936;2024-01-30T09:14:08;3.29;86.59
62476;DHT22;50739;45.670;11.936;2024-01-30T09:19:10;3.49;85.71
62476;DHT22;50739;45.670;11.936;2024-01-30T09:24:12;3.60;86.63
62476;DHT22;50739;45.670;11.936;2024-01-30T09:29:16;3.86;85.71
62476;DHT22;50739;45.670;11.936;2024-01-30T09:34:19;4.00;84.48
62476;DHT22;50739;45.670;11.936;2024-01-30T09:39:21;4.25;83.83
62476;DHT22;50739;45.670;11.936;2024-01-30T09:44:25;4.39;83.59
62476;DHT22;50739;45.670;11.936;2024-01-30T09:49:32;4.76;83.17
62476;DHT22;50739;45.670;11.936;2024-01-30T09:54:35;4.95;81.44
62476;DHT22;50739;45.670;11.936;2024-01-30T09:59:39;5.10;81.86
62476;DHT22;50739;45.670;11.936;2024-01-30T10:04:43;5.39;80.42
62476;DHT22;50739;45.670;11.936;2024-01-30T10:09:46;5.62;79.79
62476;DHT22;50739;45.670;11.936;2024-01-30T10:14:51;5.67;80.59
62476;DHT22;50739;45.670;11.936;2024-01-30T10:19:54;5.93;81.43
62476;DHT22;50739;45.670;11.936;2024-01-30T10:24:56;6.07;77.93
62476;DHT22;50739;45.670;11.936;2024-01-30T10:30:00;6.41;77.04
62476;DHT22;50739;45.670;11.936;2024-01-30T10:35:05;6.60;77.36
62476;DHT22;50739;45.670;11.936;2024-01-30T10:40:08;6.80;77.85
62476;DHT22;50739;45.670;11.936;2024-01-30T10:45:13;6.96;76.52
62476;DHT22;50739;45.670;11.936;2024-01-30T10:50:16;6.97;76.01
62476;DHT22;50739;45.670;11.936;2024-01-30T10:55:19;6.96;75.23
62476;DHT22;50739;45.670;11.936;2024-01-30T11:00:25;6.93;75.96
62476;DHT22;50739;45.670;11.936;2024-01-30T11:05:28;7.31;76.48
62476;DHT22;50739;45.670;11.936;2024-01-30T11:10:30;7.44;76.65
62476;DHT22;50739;45.670;11.936;2024-01-30T11:15:37;7.77;74.58
62476;DHT22;50739;45.670;11.936;2024-01-30T11:20:46;7.95;75.41
62476;DHT22;50739;45.670;11.936;2024-01-30T11:25:49;8.10;74.60
62476;DHT22;50739;45.670;11.936;2024-01-30T11:31:04;7.97;74.38
62476;DHT22;50739;45.670;11.936;2024-01-30T11:36:08;7.89;73.58
62476;DHT22;50739;45.670;11.936;2024-01-30T11:41:10;8.24;72.30
62476;DHT22;50739;45.670;11.936;2024-01-30T11:46:14;8.44;71.00
62476;DHT22;50739;45.670;11.936;2024-01-30T11:51:17;8.46;71.53
62476;DHT22;50739;45.670;11.936;2024-01-30T11:56:20;8.68;69.67
62476;DHT22;50739;45.670;11.936;2024-01-30T12:01:24;8.99;67.94
62476;DHT22;50739;45.670;11.936;2024-01-30T12:06:27;9.07;68.82
62476;DHT22;50739;45.670;11.936;2024-01-30T12:11:29;9.28;69.06
62476;DHT22;50739;45.670;11.936;2024-01-30T12:16:33;9.32;69.02
62476;DHT22;50739;45.670;11.936;2024-01-30T12:21:37;9.44;68.76
62476;DHT22;50739;45.670;11.936;2024-01-30T12:26:40;9.11;71.25
62476;DHT22;50739;45.670;11.936;2024-01-30T12:31:44;9.44;69.98
62476;DHT22;50739;45.670;11.936;2024-01-30T12:36:47;9.62;69.31
62476;DHT22;50739;45.670;11.936;2024-01-30T12:41:50;9.80;66.89
62476;DHT22;50739;45.670;11.936;2024-01-30T12:46:54;9.94;65.21
62476;DHT22;50739;45.670;11.936;2024-01-30T12:51:58;10.00;64.73
62476;DHT22;50739;45.670;11.936;2024-01-30T12:57:00;9.97;65.96
62476;DHT22;50739;45.670;11.936;2024-01-30T13:02:04;10.07;66.37
62476;DHT22;50739;45.670;11.936;2024-01-30T13:07:07;10.09;67.22
62476;DHT22;50739;45.670;11.936;2024-01-30T13:12:10;10.82;64.40
62476;DHT22;50739;45.670;11.936;2024-01-30T13:17:13;11.16;62.41
62476;DHT22;50739;45.670;11.936;2024-01-30T13:22:16;11.37;62.50
62476;DHT22;50739;45.670;11.936;2024-01-30T13:27:18;11.44;64.03
62476;DHT22;50739;45.670;11.936;2024-01-30T13:32:22;11.83;62.09
62476;DHT22;50739;45.670;11.936;2024-01-30T13:37:24;12.02;61.25
62476;DHT22;50739;45.670;11.936;2024-01-30T13:42:27;12.61;58.52
62476;DHT22;50739;45.670;11.936;2024-01-30T13:47:33;13.28;57.43
62476;DHT22;50739;45.670;11.936;2024-01-30T13:52:35;13.63;57.14
62476;DHT22;50739;45.670;11.936;2024-01-30T13:57:38;13.99;57.11
62476;DHT22;50739;45.670;11.936;2024-01-30T14:02:42;14.33;55.95
62476;DHT22;50739;45.670;11.936;2024-01-30T14:07:44;14.84;54.34
62476;DHT22;50739;45.670;11.936;2024-01-30T14:12:47;16.21;50.57
62476;DHT22;50739;45.670;11.936;2024-01-30T14:17:50;16.76;49.51
62476;DHT22;50739;45.670;11.936;2024-01-30T14:22:53;16.29;51.67
62476;DHT22;50739;45.670;11.936;2024-01-30T14:27:56;16.42;51.44
62476;DHT22;50739;45.670;11.936;2024-01-30T14:33:00;15.95;52.23
62476;DHT22;50739;45.670;11.936;2024-01-30T14:38:02;15.74;53.09
62476;DHT22;50739;45.670;11.936;2024-01-30T14:43:05;15.90;53.95
62476;DHT22;50739;45.670;11.936;2024-01-30T14:48:09;15.50;53.50
62476;DHT22;50739;45.670;11.936;2024-01-30T14:53:12;15.16;54.80
62476;DHT22;50739;45.670;11.936;2024-01-30T14:58:14;15.01;55.39
62476;DHT22;50739;45.670;11.936;2024-01-30T15:03:18;14.22;57.16
62476;DHT22;50739;45.670;11.936;2024-01-30T15:08:20;14.20;56.53
62476;DHT22;50739;45.670;11.936;2024-01-30T15:13:22;12.71;61.31
62476;DHT22;50739;45.670;11.936;2024-01-30T15:18:26;12.52;61.88
62476;DHT22;50739;45.670;11.936;2024-01-30T15:23:29;11.89;64.00
62476;DHT22;50739;45.670;11.936;2024-01-30T15:28:35;11.37;65.12
62476;DHT22;50739;45.670;11.936;2024-01-30T15:33:39;10.95;66.34
62476;DHT22;50739;45.670;11.936;2024-01-30T15:38:43;10.80;67.28
62476;DHT22;50739;45.670;11.936;2024-01-30T15:43:45;10.47;68.51
62476;DHT22;50739;45.670;11.936;2024-01-30T15:48:49;10.18;69.66
62476;DHT22;50739;45.670;11.936;2024-01-30T15:53:51;9.89;70.77
62476;DHT22;50739;45.670;11.936;2024-01-30T15:58:54;9.53;72.56
62476;DHT22;50739;45.670;11.936;2024-01-30T16:03:59;9.11;73.80
62476;DHT22;50739;45.670;11.936;2024-01-30T16:09:01;8.84;74.86
62476;DHT22;50739;45.670;11.936;2024-01-30T16:14:04;8.63;75.84
62476;DHT22;50739;45.670;11.936;2024-01-30T16:19:08;8.31;76.71
62476;DHT22;50739;45.670;11.936;2024-01-30T16:24:11;8.00;77.72
62476;DHT22;50739;45.670;11.936;2024-01-30T16:29:13;7.89;77.74
62476;DHT22;50739;45.670;11.936;2024-01-30T16:34:17;7.73;78.56
62476;DHT22;50739;45.670;11.936;2024-01-30T16:39:19;7.61;78.84
62476;DHT22;50739;45.670;11.936;2024-01-30T16:44:22;7.32;80.05
62476;DHT22;50739;45.670;11.936;2024-01-30T16:49:25;7.19;80.50
62476;DHT22;50739;45.670;11.936;2024-01-30T16:54:28;7.08;80.92
62476;DHT22;50739;45.670;11.936;2024-01-30T16:59:30;6.89;81.32
62476;DHT22;50739;45.670;11.936;2024-01-30T17:04:34;6.81;81.69
62476;DHT22;50739;45.670;11.936;2024-01-30T17:09:36;6.83;81.55
62476;DHT22;50739;45.670;11.936;2024-01-30T17:14:39;6.72;82.26
62476;DHT22;50739;45.670;11.936;2024-01-30T17:19:44;6.69;82.48
62476;DHT22;50739;45.670;11.936;2024-01-30T17:24:46;6.54;82.36
62476;DHT22;50739;45.670;11.936;2024-01-30T17:29:48;6.45;82.84
62476;DHT22;50739;45.670;11.936;2024-01-30T17:34:52;6.56;82.48
62476;DHT22;50739;45.670;11.936;2024-01-30T17:39:55;6.59;82.10
62476;DHT22;50739;45.670;11.936;2024-01-30T17:44:58;6.57;81.98
62476;DHT22;50739;45.670;11.936;2024-01-30T17:50:02;6.60;81.79
62476;DHT22;50739;45.670;11.936;2024-01-30T17:55:06;6.53;81.92
62476;DHT22;50739;45.670;11.936;2024-01-30T18:00:09;6.66;82.06
62476;DHT22;50739;45.670;11.936;2024-01-30T18:05:13;6.69;82.20
62476;DHT22;50739;45.670;11.936;2024-01-30T18:10:16;6.36;82.70
62476;DHT22;50739;45.670;11.936;2024-01-30T18:15:20;6.31;83.11
62476;DHT22;50739;45.670;11.936;2024-01-30T18:20:24;6.25;83.58
62476;DHT22;50739;45.670;11.936;2024-01-30T18:25:26;6.13;83.64
62476;DHT22;50739;45.670;11.936;2024-01-30T18:30:28;5.97;84.22
62476;DHT22;50739;45.670;11.936;2024-01-30T18:35:32;5.94;84.03
62476;DHT22;50739;45.670;11.936;2024-01-30T18:40:35;5.78;84.37
62476;DHT22;50739;45.670;11.936;2024-01-30T18:45:37;5.50;85.45
62476;DHT22;50739;45.670;11.936;2024-01-30T18:50:42;5.65;84.89
62476;DHT22;50739;45.670;11.936;2024-01-30T18:55:44;5.48;85.05
62476;DHT22;50739;45.670;11.936;2024-01-30T19:00:47;5.50;84.70
62476;DHT22;50739;45.670;11.936;2024-01-30T19:05:51;5.35;85.11
62476;DHT22;50739;45.670;11.936;2024-01-30T19:10:53;5.38;85.51
62476;DHT22;50739;45.670;11.936;2024-01-30T19:15:56;5.46;85.03
62476;DHT22;50739;45.670;11.936;2024-01-30T19:21:00;5.18;85.51
62476;DHT22;50739;45.670;11.936;2024-01-30T19:26:02;5.12;85.92
62476;DHT22;50739;45.670;11.936;2024-01-30T19:31:05;4.79;85.99
62476;DHT22;50739;45.670;11.936;2024-01-30T19:36:10;4.69;86.79
62476;DHT22;50739;45.670;11.936;2024-01-30T19:41:13;4.57;86.86
62476;DHT22;50739;45.670;11.936;2024-01-30T19:46:16;4.73;86.59
62476;DHT22;50739;45.670;11.936;2024-01-30T19:51:20;4.74;86.54
62476;DHT22;50739;45.670;11.936;2024-01-30T19:56:22;4.77;85.85
62476;DHT22;50739;45.670;11.936;2024-01-30T20:01:24;4.85;85.56
62476;DHT22;50739;45.670;11.936;2024-01-30T20:06:29;4.66;86.41
62476;DHT22;50739;45.670;11.936;2024-01-30T20:11:32;4.56;86.83
62476;DHT22;50739;45.670;11.936;2024-01-30T20:16:38;4.55;86.58
62476;DHT22;50739;45.670;11.936;2024-01-30T20:21:42;4.50;86.79
62476;DHT22;50739;45.670;11.936;2024-01-30T20:26:45;4.66;86.30
62476;DHT22;50739;45.670;11.936;2024-01-30T20:31:48;4.25;86.95
62476;DHT22;50739;45.670;11.936;2024-01-30T20:36:52;4.39;86.61
62476;DHT22;50739;45.670;11.936;2024-01-30T20:41:54;4.28;86.85
62476;DHT22;50739;45.670;11.936;2024-01-30T20:46:57;4.22;87.70
62476;DHT22;50739;45.670;11.936;2024-01-30T20:52:01;4.09;87.29
62476;DHT22;50739;45.670;11.936;2024-01-30T20:57:04;4.21;86.97
62476;DHT22;50739;45.670;11.936;2024-01-30T21:02:09;4.28;87.32
62476;DHT22;50739;45.670;11.936;2024-01-30T21:07:12;4.26;87.72
62476;DHT22;50739;45.670;11.936;2024-01-30T21:12:15;4.14;86.94
62476;DHT22;50739;45.670;11.936;2024-01-30T21:17:17;4.22;87.93
62476;DHT22;50739;45.670;11.936;2024-01-30T21:22:21;4.12;87.39
62476;DHT22;50739;45.670;11.936;2024-01-30T21:27:23;4.11;87.11
62476;DHT22;50739;45.670;11.936;2024-01-30T21:32:27;3.76;87.60
62476;DHT22;50739;45.670;11.936;2024-01-30T21:37:31;3.59;87.67
62476;DHT22;50739;45.670;11.936;2024-01-30T21:42:34;3.52;87.89
62476;DHT22;50739;45.670;11.936;2024-01-30T21:47:37;3.56;87.61
62476;DHT22;50739;45.670;11.936;2024-01-30T21:52:41;3.53;87.90
62476;DHT22;50739;45.670;11.936;2024-01-30T21:57:43;3.25;88.03
62476;DHT22;50739;45.670;11.936;2024-01-30T22:02:46;3.40;87.99
62476;DHT22;50739;45.670;11.936;2024-01-30T22:07:50;3.39;87.80
62476;DHT22;50739;45.670;11.936;2024-01-30T22:12:52;3.36;88.18
62476;DHT22;50739;45.670;11.936;2024-01-30T22:17:54;3.38;88.07
62476;DHT22;50739;45.670;11.936;2024-01-30T22:22:58;3.42;88.62
62476;DHT22;50739;45.670;11.936;2024-01-30T22:28:00;3.43;87.93
62476;DHT22;50739;45.670;11.936;2024-01-30T22:33:03;3.40;87.66
62476;DHT22;50739;45.670;11.936;2024-01-30T22:38:08;3.11;88.33
62476;DHT22;50739;45.670;11.936;2024-01-30T22:43:11;3.18;88.46
62476;DHT22;50739;45.670;11.936;2024-01-30T22:48:13;3.01;87.96
62476;DHT22;50739;45.670;11.936;2024-01-30T22:53:17;3.11;88.40
62476;DHT22;50739;45.670;11.936;2024-01-30T22:58:19;2.86;88.54
62476;DHT22;50739;45.670;11.936;2024-01-30T23:03:21;2.77;88.71
62476;DHT22;50739;45.670;11.936;2024-01-30T23:08:25;2.80;89.40
62476;DHT22;50739;45.670;11.936;2024-01-30T23:13:28;2.91;88.77
62476;DHT22;50739;45.670;11.936;2024-01-30T23:18:30;2.84;88.73
62476;DHT22;50739;45.670;11.936;2024-01-30T23:23:34;2.63;88.78
62476;DHT22;50739;45.670;11.936;2024-01-30T23:28:36;2.67;88.56
62476;DHT22;50739;45.670;11.936;2024-01-30T23:33:39;2.59;88.35
62476;DHT22;50739;45.670;11.936;2024-01-30T23:38:42;2.36;89.85
62476;DHT22;50739;45.670;11.936;2024-01-30T23:43:45;2.73;89.37
62476;DHT22;50739;45.670;11.936;2024-01-30T23:48:47;2.84;88.16
62476;DHT22;50739;45.670;11.936;2024-01-30T23:53:51;2.61;88.21
62476;DHT22;50739;45.670;11.936;2024-01-30T23:58:53;2.61;87.95
